sensor_id;sensor_type;location;lat;lon;timestamp;temperature;humidity
15574;DHT22;7888;46.748;8.102;2024-02-21T00:02:19;8.80;52.00
15574;DHT22;7888;46.748;8.102;2024-02-21T00:04:45;8.80;51.80
15574;DHT22;7888;46.748;8.102;2024-02-21T00:07:11;8.80;51.80
15574;DHT22;7888;46.748;8.102;2024-02-21T00:09:36;8.80;51.80
15574;DHT22;7888;46.748;8.102;2024-02-21T00:12:02;8.80;51.80
15574;DHT22;7888;46.748;8.102;2024-02-21T00:14:28;8.80;51.70
15574;DHT22;7888;46.748;8.102;2024-02-21T00:16:54;8.70;51.60
15574;DHT22;7888;46.748;8.102;2024-02-21T00:19:20;8.70;51.70
15574;DHT22;7888;46.748;8.102;2024-02-21T00:21:46;8.70;51.80
15574;DHT22;7888;46.748;8.102;2024-02-21T00:24:12;8.60;51.80
15574;DHT22;7888;46.748;8.102;2024-02-21T00:26:37;8.60;51.80
15574;DHT22;7888;46.748;8.102;2024-02-21T00:29:03;8.60;51.90
15574;DHT22;7888;46.748;8.102;2024-02-21T00:31:29;8.60;51.90
15574;DHT22;7888;46.748;8.102;2024-02-21T00:33:55;8.60;51.90
15574;DHT22;7888;46.748;8.102;2024-02-21T00:36:20;8.60;51.90
15574;DHT22;7888;46.748;8.102;2024-02-21T00:38:46;8.50;51.90
15574;DHT22;7888;46.748;8.102;2024-02-21T00:41:12;8.50;51.80
15574;DHT22;7888;46.748;8.102;2024-02-21T00:43:37;8.50;51.90
15574;DHT22;7888;46.748;8.102;2024-02-21T00:46:06;8.50;51.90
15574;DHT22;7888;46.748;8.102;2024-02-21T00:48:31;8.50;52.00
15574;DHT22;7888;46.748;8.102;2024-02-21T00:50:57;8.50;51.90
15574;DHT22;7888;46.748;8.102;2024-02-21T00:53:23;8.50;51.90
15574;DHT22;7888;46.748;8.102;2024-02-21T00:55:49;8.50;51.90
15574;DHT22;7888;46.748;8.102;2024-02-21T00:58:15;8.50;51.90
15574;DHT22;7888;46.748;8.102;2024-02-21T01:00:40;8.40;52.50
15574;DHT22;7888;46.748;8.102;2024-02-21T01:03:06;8.40;51.90
15574;DHT22;7888;46.748;8.102;2024-02-21T01:05:32;8.40;52.00
15574;DHT22;7888;46.748;8.102;2024-02-21T01:07:58;8.40;52.00
15574;DHT22;7888;46.748;8.102;2024-02-21T01:10:23;8.40;52.10
15574;DHT22;7888;46.748;8.102;2024-02-21T01:12:49;8.30;52.10
15574;DHT22;7888;46.748;8.102;2024-02-21T01:15:15;8.30;52.10
15574;DHT22;7888;46.748;8.102;2024-02-21T01:17:40;8.30;52.10
15574;DHT22;7888;46.748;8.102;2024-02-21T01:20:07;8.30;52.70
15574;DHT22;7888;46.748;8.102;2024-02-21T01:22:33;8.30;52.10
15574;DHT22;7888;46.748;8.102;2024-02-21T01:24:59;8.30;52.10
15574;DHT22;7888;46.748;8.102;2024-02-21T01:27:25;8.30;52.10
15574;DHT22;7888;46.748;8.102;2024-02-21T01:29:50;8.30;52.80
15574;DHT22;7888;46.748;8.102;2024-02-21T01:32:16;8.30;52.80
15574;DHT22;7888;46.748;8.102;2024-02-21T01:34:42;8.30;52.20
15574;DHT22;7888;46.748;8.102;2024-02-21T01:37:08;8.30;52.20
15574;DHT22;7888;46.748;8.102;2024-02-21T01:39:34;8.30;52.40
15574;DHT22;7888;46.748;8.102;2024-02-21T01:42:00;8.30;52.40
15574;DHT22;7888;46.748;8.102;2024-02-21T01:44:26;8.30;52.50
15574;DHT22;7888;46.748;8.102;2024-02-21T01:46:52;8.30;52.60
15574;DHT22;7888;46.748;8.102;2024-02-21T01:49:19;8.30;52.70
15574;DHT22;7888;46.748;8.102;2024-02-21T01:51:46;8.30;52.80
15574;DHT22;7888;46.748;8.102;2024-02-21T01:54:14;8.30;52.80
15574;DHT22;7888;46.748;8.102;2024-02-21T01:56:42;8.20;52.80
15574;DHT22;7888;46.748;8.102;2024-02-21T01:59:08;8.30;52.90
15574;DHT22;7888;46.748;8.102;2024-02-21T02:01:35;8.30;52.90
15574;DHT22;7888;46.748;8.102;2024-02-21T02:04:00;8.30;52.90
15574;DHT22;7888;46.748;8.102;2024-02-21T02:06:27;8.30;52.80
15574;DHT22;7888;46.748;8.102;2024-02-21T02:08:53;8.20;52.80
15574;DHT22;7888;46.748;8.102;2024-02-21T02:11:20;8.30;52.80
15574;DHT22;7888;46.748;8.102;2024-02-21T02:13:45;8.30;52.80
15574;DHT22;7888;46.748;8.102;2024-02-21T02:16:11;8.30;52.90
15574;DHT22;7888;46.748;8.102;2024-02-21T02:18:37;8.30;52.90
15574;DHT22;7888;46.748;8.102;2024-02-21T02:21:05;8.30;52.90
15574;DHT22;7888;46.748;8.102;2024-02-21T02:23:56;8.30;52.90
15574;DHT22;7888;46.748;8.102;2024-02-21T02:26:22;8.30;52.80
15574;DHT22;7888;46.748;8.102;2024-02-21T02:28:48;8.30;52.80
15574;DHT22;7888;46.748;8.102;2024-02-21T02:31:14;8.30;52.80
15574;DHT22;7888;46.748;8.102;2024-02-21T02:33:39;8.20;52.90
15574;DHT22;7888;46.748;8.102;2024-02-21T02:36:07;8.20;52.80
15574;DHT22;7888;46.748;8.102;2024-02-21T02:38:33;8.20;52.90
15574;DHT22;7888;46.748;8.102;2024-02-21T02:40:59;8.20;53.00
15574;DHT22;7888;46.748;8.102;2024-02-21T02:43:25;8.20;53.00
15574;DHT22;7888;46.748;8.102;2024-02-21T02:45:50;8.20;53.10
15574;DHT22;7888;46.748;8.102;2024-02-21T02:48:16;8.20;53.10
15574;DHT22;7888;46.748;8.102;2024-02-21T02:50:42;8.20;53.10
15574;DHT22;7888;46.748;8.102;2024-02-21T02:53:07;8.20;53.10
15574;DHT22;7888;46.748;8.102;2024-02-21T02:55:33;8.20;53.10
15574;DHT22;7888;46.748;8.102;2024-02-21T02:58:00;8.20;53.10
15574;DHT22;7888;46.748;8.102;2024-02-21T03:00:26;8.20;53.00
15574;DHT22;7888;46.748;8.102;2024-02-21T03:02:52;8.20;52.90
15574;DHT22;7888;46.748;8.102;2024-02-21T03:05:20;8.20;52.90
15574;DHT22;7888;46.748;8.102;2024-02-21T03:07:47;8.20;53.00
15574;DHT22;7888;46.748;8.102;2024-02-21T03:10:14;8.20;53.00
15574;DHT22;7888;46.748;8.102;2024-02-21T03:12:43;8.20;53.00
15574;DHT22;7888;46.748;8.102;2024-02-21T03:15:09;8.10;53.00
15574;DHT22;7888;46.748;8.102;2024-02-21T03:17:35;8.10;53.00
15574;DHT22;7888;46.748;8.102;2024-02-21T03:20:04;8.10;53.10
15574;DHT22;7888;46.748;8.102;2024-02-21T03:22:31;8.10;53.10
15574;DHT22;7888;46.748;8.102;2024-02-21T03:24:58;8.10;53.10
15574;DHT22;7888;46.748;8.102;2024-02-21T03:27:24;8.10;53.10
15574;DHT22;7888;46.748;8.102;2024-02-21T03:29:49;8.10;53.10
15574;DHT22;7888;46.748;8.102;2024-02-21T03:32:15;8.10;53.20
15574;DHT22;7888;46.748;8.102;2024-02-21T03:34:41;8.10;53.20
15574;DHT22;7888;46.748;8.102;2024-02-21T03:37:06;8.10;53.20
15574;DHT22;7888;46.748;8.102;2024-02-21T03:39:32;8.10;53.30
15574;DHT22;7888;46.748;8.102;2024-02-21T03:41:59;8.00;53.10
15574;DHT22;7888;46.748;8.102;2024-02-21T03:44:30;8.00;53.10
15574;DHT22;7888;46.748;8.102;2024-02-21T03:46:58;7.90;53.00
15574;DHT22;7888;46.748;8.102;2024-02-21T03:49:25;8.00;53.10
15574;DHT22;7888;46.748;8.102;2024-02-21T03:51:51;7.90;53.10
15574;DHT22;7888;46.748;8.102;2024-02-21T03:54:18;7.80;53.00
15574;DHT22;7888;46.748;8.102;2024-02-21T03:56:44;7.90;53.10
15574;DHT22;7888;46.748;8.102;2024-02-21T03:59:10;7.80;53.20
15574;DHT22;7888;46.748;8.102;2024-02-21T04:01:35;7.80;53.20
15574;DHT22;7888;46.748;8.102;2024-02-21T04:04:02;7.80;53.20
15574;DHT22;7888;46.748;8.102;2024-02-21T04:06:28;7.70;53.20
15574;DHT22;7888;46.748;8.102;2024-02-21T04:08:54;7.70;53.20
15574;DHT22;7888;46.748;8.102;2024-02-21T04:11:20;7.70;53.20
15574;DHT22;7888;46.748;8.102;2024-02-21T04:13:46;7.70;53.20
15574;DHT22;7888;46.748;8.102;2024-02-21T04:16:14;7.70;53.20
15574;DHT22;7888;46.748;8.102;2024-02-21T04:18:41;7.70;53.80
15574;DHT22;7888;46.748;8.102;2024-02-21T04:21:08;7.60;53.20
15574;DHT22;7888;46.748;8.102;2024-02-21T04:23:34;7.70;54.00
15574;DHT22;7888;46.748;8.102;2024-02-21T04:25:59;7.70;53.40
15574;DHT22;7888;46.748;8.102;2024-02-21T04:28:25;7.70;53.40
15574;DHT22;7888;46.748;8.102;2024-02-21T04:30:51;7.70;53.40
15574;DHT22;7888;46.748;8.102;2024-02-21T04:33:16;7.70;53.40
15574;DHT22;7888;46.748;8.102;2024-02-21T04:35:42;7.70;53.40
15574;DHT22;7888;46.748;8.102;2024-02-21T04:38:08;7.70;53.40
15574;DHT22;7888;46.748;8.102;2024-02-21T04:40:34;7.70;53.40
15574;DHT22;7888;46.748;8.102;2024-02-21T04:42:59;7.70;53.30
15574;DHT22;7888;46.748;8.102;2024-02-21T04:45:25;7.70;53.30
15574;DHT22;7888;46.748;8.102;2024-02-21T04:47:51;7.70;53.40
15574;DHT22;7888;46.748;8.102;2024-02-21T04:50:16;7.70;53.30
15574;DHT22;7888;46.748;8.102;2024-02-21T04:52:43;7.70;54.00
15574;DHT22;7888;46.748;8.102;2024-02-21T04:55:08;7.70;53.50
15574;DHT22;7888;46.748;8.102;2024-02-21T04:57:34;7.80;53.50
15574;DHT22;7888;46.748;8.102;2024-02-21T05:00:00;7.70;53.50
15574;DHT22;7888;46.748;8.102;2024-02-21T05:02:26;7.80;53.50
15574;DHT22;7888;46.748;8.102;2024-02-21T05:04:53;7.80;53.50
15574;DHT22;7888;46.748;8.102;2024-02-21T05:07:19;7.80;53.50
15574;DHT22;7888;46.748;8.102;2024-02-21T05:09:45;7.80;53.50
15574;DHT22;7888;46.748;8.102;2024-02-21T05:12:11;7.80;53.50
15574;DHT22;7888;46.748;8.102;2024-02-21T05:14:37;7.80;54.10
15574;DHT22;7888;46.748;8.102;2024-02-21T05:17:06;7.80;53.50
15574;DHT22;7888;46.748;8.102;2024-02-21T05:19:32;7.80;53.70
15574;DHT22;7888;46.748;8.102;2024-02-21T05:21:59;7.80;53.60
15574;DHT22;7888;46.748;8.102;2024-02-21T05:24:25;7.80;53.70
15574;DHT22;7888;46.748;8.102;2024-02-21T05:26:51;7.80;53.60
15574;DHT22;7888;46.748;8.102;2024-02-21T05:29:17;7.80;53.70
15574;DHT22;7888;46.748;8.102;2024-02-21T05:31:55;7.80;53.70
15574;DHT22;7888;46.748;8.102;2024-02-21T05:34:22;7.80;53.90
15574;DHT22;7888;46.748;8.102;2024-02-21T05:36:48;7.90;53.60
15574;DHT22;7888;46.748;8.102;2024-02-21T05:39:15;7.90;53.60
15574;DHT22;7888;46.748;8.102;2024-02-21T05:41:45;7.90;53.60
15574;DHT22;7888;46.748;8.102;2024-02-21T05:44:11;7.90;53.50
15574;DHT22;7888;46.748;8.102;2024-02-21T05:46:37;7.90;53.50
15574;DHT22;7888;46.748;8.102;2024-02-21T05:49:03;7.90;53.50
15574;DHT22;7888;46.748;8.102;2024-02-21T05:51:33;7.90;53.50
15574;DHT22;7888;46.748;8.102;2024-02-21T05:53:59;8.00;53.70
15574;DHT22;7888;46.748;8.102;2024-02-21T05:56:25;8.00;53.50
15574;DHT22;7888;46.748;8.102;2024-02-21T05:58:51;8.00;53.40
15574;DHT22;7888;46.748;8.102;2024-02-21T06:01:17;8.00;53.30
15574;DHT22;7888;46.748;8.102;2024-02-21T06:03:43;8.00;53.30
15574;DHT22;7888;46.748;8.102;2024-02-21T06:06:09;8.00;53.30
15574;DHT22;7888;46.748;8.102;2024-02-21T06:08:35;8.00;53.20
15574;DHT22;7888;46.748;8.102;2024-02-21T06:11:00;8.00;53.10
15574;DHT22;7888;46.748;8.102;2024-02-21T06:13:26;7.90;53.00
15574;DHT22;7888;46.748;8.102;2024-02-21T06:15:53;7.90;53.00
15574;DHT22;7888;46.748;8.102;2024-02-21T06:18:19;7.80;53.10
15574;DHT22;7888;46.748;8.102;2024-02-21T06:20:46;7.80;53.20
15574;DHT22;7888;46.748;8.102;2024-02-21T06:23:12;7.80;53.20
15574;DHT22;7888;46.748;8.102;2024-02-21T06:25:44;7.70;53.20
15574;DHT22;7888;46.748;8.102;2024-02-21T06:28:10;7.70;53.20
15574;DHT22;7888;46.748;8.102;2024-02-21T06:30:36;7.60;53.30
15574;DHT22;7888;46.748;8.102;2024-02-21T06:33:02;7.60;54.00
15574;DHT22;7888;46.748;8.102;2024-02-21T06:35:28;7.60;53.40
15574;DHT22;7888;46.748;8.102;2024-02-21T06:37:54;7.60;53.50
15574;DHT22;7888;46.748;8.102;2024-02-21T06:40:22;7.60;53.50
15574;DHT22;7888;46.748;8.102;2024-02-21T06:42:48;7.50;53.50
15574;DHT22;7888;46.748;8.102;2024-02-21T06:45:15;7.60;53.60
15574;DHT22;7888;46.748;8.102;2024-02-21T06:47:41;7.50;53.60
15574;DHT22;7888;46.748;8.102;2024-02-21T06:50:07;7.50;53.70
15574;DHT22;7888;46.748;8.102;2024-02-21T06:52:34;7.50;53.70
15574;DHT22;7888;46.748;8.102;2024-02-21T06:55:00;7.50;53.70
15574;DHT22;7888;46.748;8.102;2024-02-21T06:57:26;7.60;53.80
15574;DHT22;7888;46.748;8.102;2024-02-21T06:59:52;7.60;53.90
15574;DHT22;7888;46.748;8.102;2024-02-21T07:02:17;7.60;54.00
15574;DHT22;7888;46.748;8.102;2024-02-21T07:04:43;7.60;54.10
15574;DHT22;7888;46.748;8.102;2024-02-21T07:07:09;7.60;54.40
15574;DHT22;7888;46.748;8.102;2024-02-21T07:09:35;7.60;54.30
15574;DHT22;7888;46.748;8.102;2024-02-21T07:12:01;7.70;54.50
15574;DHT22;7888;46.748;8.102;2024-02-21T07:14:32;7.70;54.40
15574;DHT22;7888;46.748;8.102;2024-02-21T07:16:58;7.80;54.40
15574;DHT22;7888;46.748;8.102;2024-02-21T07:19:24;7.80;54.20
15574;DHT22;7888;46.748;8.102;2024-02-21T07:21:49;7.90;54.30
15574;DHT22;7888;46.748;8.102;2024-02-21T07:24:15;7.90;54.30
15574;DHT22;7888;46.748;8.102;2024-02-21T07:26:44;8.00;54.30
15574;DHT22;7888;46.748;8.102;2024-02-21T07:29:10;8.00;54.30
15574;DHT22;7888;46.748;8.102;2024-02-21T07:31:43;8.00;54.20
15574;DHT22;7888;46.748;8.102;2024-02-21T07:34:10;8.10;54.40
15574;DHT22;7888;46.748;8.102;2024-02-21T07:36:36;8.10;54.30
15574;DHT22;7888;46.748;8.102;2024-02-21T07:39:04;8.20;54.40
15574;DHT22;7888;46.748;8.102;2024-02-21T07:41:32;8.20;54.40
15574;DHT22;7888;46.748;8.102;2024-02-21T07:44:00;8.30;54.50
15574;DHT22;7888;46.748;8.102;2024-02-21T07:46:25;8.40;54.60
15574;DHT22;7888;46.748;8.102;2024-02-21T07:48:51;8.50;54.70
15574;DHT22;7888;46.748;8.102;2024-02-21T07:51:17;8.50;54.70
15574;DHT22;7888;46.748;8.102;2024-02-21T07:53:44;8.70;54.90
15574;DHT22;7888;46.748;8.102;2024-02-21T07:56:15;8.80;54.80
15574;DHT22;7888;46.748;8.102;2024-02-21T07:58:41;8.90;54.40
15574;DHT22;7888;46.748;8.102;2024-02-21T08:01:08;9.00;54.20
15574;DHT22;7888;46.748;8.102;2024-02-21T08:03:34;9.10;54.00
15574;DHT22;7888;46.748;8.102;2024-02-21T08:06:00;9.20;53.80
15574;DHT22;7888;46.748;8.102;2024-02-21T08:08:26;9.30;53.80
15574;DHT22;7888;46.748;8.102;2024-02-21T08:10:52;9.40;53.80
15574;DHT22;7888;46.748;8.102;2024-02-21T08:13:17;9.40;53.80
15574;DHT22;7888;46.748;8.102;2024-02-21T08:15:43;9.50;53.70
15574;DHT22;7888;46.748;8.102;2024-02-21T08:18:09;9.60;54.10
15574;DHT22;7888;46.748;8.102;2024-02-21T08:20:35;9.60;53.30
15574;DHT22;7888;46.748;8.102;2024-02-21T08:23:01;9.70;53.30
15574;DHT22;7888;46.748;8.102;2024-02-21T08:25:27;9.80;53.30
15574;DHT22;7888;46.748;8.102;2024-02-21T08:27:57;9.90;53.40
15574;DHT22;7888;46.748;8.102;2024-02-21T08:30:24;10.00;53.20
15574;DHT22;7888;46.748;8.102;2024-02-21T08:32:50;10.00;53.60
15574;DHT22;7888;46.748;8.102;2024-02-21T08:35:16;10.10;53.00
15574;DHT22;7888;46.748;8.102;2024-02-21T08:37:45;10.20;53.00
15574;DHT22;7888;46.748;8.102;2024-02-21T08:40:14;10.20;53.00
15574;DHT22;7888;46.748;8.102;2024-02-21T08:42:43;10.30;52.90
15574;DHT22;7888;46.748;8.102;2024-02-21T08:45:09;10.30;52.80
15574;DHT22;7888;46.748;8.102;2024-02-21T08:47:35;10.40;52.70
15574;DHT22;7888;46.748;8.102;2024-02-21T08:50:04;10.40;52.80
15574;DHT22;7888;46.748;8.102;2024-02-21T08:52:31;10.50;52.80
15574;DHT22;7888;46.748;8.102;2024-02-21T08:54:57;10.50;52.60
15574;DHT22;7888;46.748;8.102;2024-02-21T08:57:23;10.60;52.60
15574;DHT22;7888;46.748;8.102;2024-02-21T08:59:49;10.60;52.50
15574;DHT22;7888;46.748;8.102;2024-02-21T09:02:15;10.60;52.40
15574;DHT22;7888;46.748;8.102;2024-02-21T09:04:44;10.70;52.50
15574;DHT22;7888;46.748;8.102;2024-02-21T09:07:10;10.70;52.40
15574;DHT22;7888;46.748;8.102;2024-02-21T09:09:36;10.80;52.60
15574;DHT22;7888;46.748;8.102;2024-02-21T09:12:05;10.90;52.40
15574;DHT22;7888;46.748;8.102;2024-02-21T09:14:33;10.90;52.30
15574;DHT22;7888;46.748;8.102;2024-02-21T09:16:59;11.00;52.10
15574;DHT22;7888;46.748;8.102;2024-02-21T09:19:25;11.00;52.10
15574;DHT22;7888;46.748;8.102;2024-02-21T09:21:51;11.10;52.00
15574;DHT22;7888;46.748;8.102;2024-02-21T09:24:17;11.10;52.00
15574;DHT22;7888;46.748;8.102;2024-02-21T09:26:43;11.20;52.00
15574;DHT22;7888;46.748;8.102;2024-02-21T09:29:09;11.30;51.90
15574;DHT22;7888;46.748;8.102;2024-02-21T09:31:35;11.40;51.80
15574;DHT22;7888;46.748;8.102;2024-02-21T09:34:01;11.40;51.70
15574;DHT22;7888;46.748;8.102;2024-02-21T09:36:27;11.50;51.80
15574;DHT22;7888;46.748;8.102;2024-02-21T09:38:53;11.60;51.70
15574;DHT22;7888;46.748;8.102;2024-02-21T09:41:25;11.70;52.30
15574;DHT22;7888;46.748;8.102;2024-02-21T09:43:54;11.80;51.30
15574;DHT22;7888;46.748;8.102;2024-02-21T09:49:34;12.00;50.60
15574;DHT22;7888;46.748;8.102;2024-02-21T09:52:04;12.10;49.50
15574;DHT22;7888;46.748;8.102;2024-02-21T09:54:35;12.30;50.00
15574;DHT22;7888;46.748;8.102;2024-02-21T09:57:04;12.40;49.90
15574;DHT22;7888;46.748;8.102;2024-02-21T09:59:32;12.50;49.60
15574;DHT22;7888;46.748;8.102;2024-02-21T10:01:59;12.70;49.60
15574;DHT22;7888;46.748;8.102;2024-02-21T10:04:26;12.80;49.50
15574;DHT22;7888;46.748;8.102;2024-02-21T10:06:53;12.90;49.50
15574;DHT22;7888;46.748;8.102;2024-02-21T10:09:23;13.00;50.10
15574;DHT22;7888;46.748;8.102;2024-02-21T10:11:53;13.00;49.10
15574;DHT22;7888;46.748;8.102;2024-02-21T10:14:20;13.10;48.90
15574;DHT22;7888;46.748;8.102;2024-02-21T10:16:58;13.10;49.00
15574;DHT22;7888;46.748;8.102;2024-02-21T10:19:27;13.20;48.50
15574;DHT22;7888;46.748;8.102;2024-02-21T10:24:36;13.40;48.40
15574;DHT22;7888;46.748;8.102;2024-02-21T10:27:05;13.50;48.90
15574;DHT22;7888;46.748;8.102;2024-02-21T10:29:34;13.50;48.90
15574;DHT22;7888;46.748;8.102;2024-02-21T10:32:08;13.70;48.80
15574;DHT22;7888;46.748;8.102;2024-02-21T10:34:36;13.80;48.10
15574;DHT22;7888;46.748;8.102;2024-02-21T10:37:04;14.00;48.60
15574;DHT22;7888;46.748;8.102;2024-02-21T10:39:36;14.20;48.40
15574;DHT22;7888;46.748;8.102;2024-02-21T10:42:04;14.30;47.70
15574;DHT22;7888;46.748;8.102;2024-02-21T10:44:37;14.50;47.70
15574;DHT22;7888;46.748;8.102;2024-02-21T10:47:08;14.70;47.20
15574;DHT22;7888;46.748;8.102;2024-02-21T10:49:41;14.80;47.30
15574;DHT22;7888;46.748;8.102;2024-02-21T10:55:05;15.00;46.30
15574;DHT22;7888;46.748;8.102;2024-02-21T10:57:41;15.10;46.60
15574;DHT22;7888;46.748;8.102;2024-02-21T11:00:09;15.20;46.50
15574;DHT22;7888;46.748;8.102;2024-02-21T11:02:38;15.20;46.20
15574;DHT22;7888;46.748;8.102;2024-02-21T11:05:05;15.30;46.00
15574;DHT22;7888;46.748;8.102;2024-02-21T11:07:35;15.40;45.90
15574;DHT22;7888;46.748;8.102;2024-02-21T11:10:03;15.40;45.40
15574;DHT22;7888;46.748;8.102;2024-02-21T11:12:33;15.50;45.90
15574;DHT22;7888;46.748;8.102;2024-02-21T11:15:08;15.60;46.20
15574;DHT22;7888;46.748;8.102;2024-02-21T11:17:34;15.60;46.00
15574;DHT22;7888;46.748;8.102;2024-02-21T11:20:11;15.70;46.20
15574;DHT22;7888;46.748;8.102;2024-02-21T11:22:43;15.80;45.60
15574;DHT22;7888;46.748;8.102;2024-02-21T11:25:09;15.90;45.80
15574;DHT22;7888;46.748;8.102;2024-02-21T11:27:38;16.00;46.00
15574;DHT22;7888;46.748;8.102;2024-02-21T11:30:05;16.10;46.00
15574;DHT22;7888;46.748;8.102;2024-02-21T11:32:31;16.20;45.90
15574;DHT22;7888;46.748;8.102;2024-02-21T11:35:03;16.30;45.80
15574;DHT22;7888;46.748;8.102;2024-02-21T11:37:31;16.30;44.60
15574;DHT22;7888;46.748;8.102;2024-02-21T11:39:59;16.40;44.30
15574;DHT22;7888;46.748;8.102;2024-02-21T11:42:27;16.40;44.10
15574;DHT22;7888;46.748;8.102;2024-02-21T11:44:54;16.40;43.80
15574;DHT22;7888;46.748;8.102;2024-02-21T11:47:22;16.40;43.70
15574;DHT22;7888;46.748;8.102;2024-02-21T11:49:48;16.40;43.60
15574;DHT22;7888;46.748;8.102;2024-02-21T11:52:22;16.40;43.60
15574;DHT22;7888;46.748;8.102;2024-02-21T11:54:53;16.40;43.70
15574;DHT22;7888;46.748;8.102;2024-02-21T11:57:20;16.40;43.70
15574;DHT22;7888;46.748;8.102;2024-02-21T11:59:46;16.30;43.60
15574;DHT22;7888;46.748;8.102;2024-02-21T12:02:13;16.40;43.60
15574;DHT22;7888;46.748;8.102;2024-02-21T12:04:40;16.40;43.70
15574;DHT22;7888;46.748;8.102;2024-02-21T12:07:05;16.40;43.90
15574;DHT22;7888;46.748;8.102;2024-02-21T12:09:34;16.40;43.90
15574;DHT22;7888;46.748;8.102;2024-02-21T12:12:04;16.50;44.40
15574;DHT22;7888;46.748;8.102;2024-02-21T12:14:33;16.60;44.20
15574;DHT22;7888;46.748;8.102;2024-02-21T12:17:00;16.70;44.30
15574;DHT22;7888;46.748;8.102;2024-02-21T12:19:32;16.80;43.90
15574;DHT22;7888;46.748;8.102;2024-02-21T12:22:01;16.80;43.70
15574;DHT22;7888;46.748;8.102;2024-02-21T12:24:31;16.90;43.10
15574;DHT22;7888;46.748;8.102;2024-02-21T12:26:57;17.00;43.30
15574;DHT22;7888;46.748;8.102;2024-02-21T12:29:24;17.10;43.00
15574;DHT22;7888;46.748;8.102;2024-02-21T12:31:50;17.10;42.80
15574;DHT22;7888;46.748;8.102;2024-02-21T12:34:17;17.10;42.60
15574;DHT22;7888;46.748;8.102;2024-02-21T12:36:44;17.20;42.60
15574;DHT22;7888;46.748;8.102;2024-02-21T12:39:13;17.20;43.30
15574;DHT22;7888;46.748;8.102;2024-02-21T12:41:39;17.20;42.50
15574;DHT22;7888;46.748;8.102;2024-02-21T12:44:09;17.20;42.30
15574;DHT22;7888;46.748;8.102;2024-02-21T12:46:37;17.20;42.00
15574;DHT22;7888;46.748;8.102;2024-02-21T12:49:05;17.20;42.10
15574;DHT22;7888;46.748;8.102;2024-02-21T12:51:32;17.10;42.10
15574;DHT22;7888;46.748;8.102;2024-02-21T12:53:58;17.10;42.00
15574;DHT22;7888;46.748;8.102;2024-02-21T12:56:25;17.00;41.90
15574;DHT22;7888;46.748;8.102;2024-02-21T12:58:56;17.00;41.90
15574;DHT22;7888;46.748;8.102;2024-02-21T13:01:22;17.00;42.10
15574;DHT22;7888;46.748;8.102;2024-02-21T13:03:48;17.00;42.10
15574;DHT22;7888;46.748;8.102;2024-02-21T13:06:14;17.00;42.00
15574;DHT22;7888;46.748;8.102;2024-02-21T13:08:40;17.00;42.10
15574;DHT22;7888;46.748;8.102;2024-02-21T13:11:06;17.10;42.10
15574;DHT22;7888;46.748;8.102;2024-02-21T13:13:32;17.10;42.60
15574;DHT22;7888;46.748;8.102;2024-02-21T13:15:58;17.20;42.00
15574;DHT22;7888;46.748;8.102;2024-02-21T13:18:24;17.30;41.70
15574;DHT22;7888;46.748;8.102;2024-02-21T13:20:50;17.30;41.60
15574;DHT22;7888;46.748;8.102;2024-02-21T13:23:16;17.40;41.20
15574;DHT22;7888;46.748;8.102;2024-02-21T13:25:42;17.50;41.00
15574;DHT22;7888;46.748;8.102;2024-02-21T13:28:09;17.50;40.80
15574;DHT22;7888;46.748;8.102;2024-02-21T13:30:35;17.60;40.80
15574;DHT22;7888;46.748;8.102;2024-02-21T13:33:01;17.60;40.80
15574;DHT22;7888;46.748;8.102;2024-02-21T13:35:28;17.70;40.70
15574;DHT22;7888;46.748;8.102;2024-02-21T13:37:54;17.80;40.60
15574;DHT22;7888;46.748;8.102;2024-02-21T13:40:20;17.90;40.70
15574;DHT22;7888;46.748;8.102;2024-02-21T13:42:46;18.00;41.30
15574;DHT22;7888;46.748;8.102;2024-02-21T13:45:11;18.00;40.50
15574;DHT22;7888;46.748;8.102;2024-02-21T13:47:37;18.10;40.40
15574;DHT22;7888;46.748;8.102;2024-02-21T13:50:04;18.10;40.10
15574;DHT22;7888;46.748;8.102;2024-02-21T13:52:34;18.20;40.00
15574;DHT22;7888;46.748;8.102;2024-02-21T13:55:00;18.20;39.60
15574;DHT22;7888;46.748;8.102;2024-02-21T13:57:26;18.20;39.50
15574;DHT22;7888;46.748;8.102;2024-02-21T13:59:52;18.20;39.10
15574;DHT22;7888;46.748;8.102;2024-02-21T14:02:18;18.20;38.90
15574;DHT22;7888;46.748;8.102;2024-02-21T14:04:44;18.20;38.70
15574;DHT22;7888;46.748;8.102;2024-02-21T14:07:09;18.20;38.80
15574;DHT22;7888;46.748;8.102;2024-02-21T14:09:35;18.30;39.00
15574;DHT22;7888;46.748;8.102;2024-02-21T14:12:01;18.30;38.90
15574;DHT22;7888;46.748;8.102;2024-02-21T14:14:27;18.20;38.60
15574;DHT22;7888;46.748;8.102;2024-02-21T14:16:53;18.20;38.30
15574;DHT22;7888;46.748;8.102;2024-02-21T14:19:19;18.20;38.50
15574;DHT22;7888;46.748;8.102;2024-02-21T14:21:44;18.10;38.30
15574;DHT22;7888;46.748;8.102;2024-02-21T14:24:11;18.10;38.00
15574;DHT22;7888;46.748;8.102;2024-02-21T14:26:37;18.10;38.30
15574;DHT22;7888;46.748;8.102;2024-02-21T14:29:04;18.10;37.90
15574;DHT22;7888;46.748;8.102;2024-02-21T14:31:33;18.00;37.80
15574;DHT22;7888;46.748;8.102;2024-02-21T14:33:59;18.00;37.30
15574;DHT22;7888;46.748;8.102;2024-02-21T14:36:26;18.00;37.80
15574;DHT22;7888;46.748;8.102;2024-02-21T14:38:52;18.00;37.90
15574;DHT22;7888;46.748;8.102;2024-02-21T14:41:18;18.00;38.30
15574;DHT22;7888;46.748;8.102;2024-02-21T14:43:44;18.00;38.20
15574;DHT22;7888;46.748;8.102;2024-02-21T14:46:10;18.00;38.20
15574;DHT22;7888;46.748;8.102;2024-02-21T14:48:37;17.90;38.40
15574;DHT22;7888;46.748;8.102;2024-02-21T14:51:04;17.90;38.60
15574;DHT22;7888;46.748;8.102;2024-02-21T14:53:30;17.90;38.90
15574;DHT22;7888;46.748;8.102;2024-02-21T14:55:56;17.90;38.90
15574;DHT22;7888;46.748;8.102;2024-02-21T14:58:23;17.90;38.80
15574;DHT22;7888;46.748;8.102;2024-02-21T15:00:49;17.80;38.70
15574;DHT22;7888;46.748;8.102;2024-02-21T15:03:18;17.60;38.80
15574;DHT22;7888;46.748;8.102;2024-02-21T15:05:47;17.50;38.70
15574;DHT22;7888;46.748;8.102;2024-02-21T15:08:13;17.40;38.80
15574;DHT22;7888;46.748;8.102;2024-02-21T15:10:42;17.30;38.90
15574;DHT22;7888;46.748;8.102;2024-02-21T15:13:08;17.20;39.10
15574;DHT22;7888;46.748;8.102;2024-02-21T15:15:34;17.10;39.60
15574;DHT22;7888;46.748;8.102;2024-02-21T15:18:00;17.10;39.20
15574;DHT22;7888;46.748;8.102;2024-02-21T15:20:26;17.10;39.20
15574;DHT22;7888;46.748;8.102;2024-02-21T15:22:53;17.10;39.10
15574;DHT22;7888;46.748;8.102;2024-02-21T15:25:19;17.10;39.10
15574;DHT22;7888;46.748;8.102;2024-02-21T15:27:46;17.10;39.20
15574;DHT22;7888;46.748;8.102;2024-02-21T15:30:12;17.00;39.10
15574;DHT22;7888;46.748;8.102;2024-02-21T15:32:39;17.00;39.00
15574;DHT22;7888;46.748;8.102;2024-02-21T15:35:06;17.00;39.20
15574;DHT22;7888;46.748;8.102;2024-02-21T15:37:35;17.00;39.20
15574;DHT22;7888;46.748;8.102;2024-02-21T15:40:00;17.00;39.00
15574;DHT22;7888;46.748;8.102;2024-02-21T15:42:27;17.00;39.10
15574;DHT22;7888;46.748;8.102;2024-02-21T15:44:54;16.90;39.20
15574;DHT22;7888;46.748;8.102;2024-02-21T15:47:20;16.90;39.20
15574;DHT22;7888;46.748;8.102;2024-02-21T15:49:49;16.90;39.30
15574;DHT22;7888;46.748;8.102;2024-02-21T15:52:16;16.80;39.20
15574;DHT22;7888;46.748;8.102;2024-02-21T15:54:42;16.80;39.40
15574;DHT22;7888;46.748;8.102;2024-02-21T15:57:07;16.80;39.40
15574;DHT22;7888;46.748;8.102;2024-02-21T15:59:33;16.70;39.50
15574;DHT22;7888;46.748;8.102;2024-02-21T16:02:00;16.70;40.20